METAR Data
IDs: Format: Raw Decoded Include TAF

Data at: 2039 UTC 17 Jun 2019

METAR for:KIAH (Houston/Bush Intl, TX, US)
Text:KIAH 171953Z 13004KT 10SM FEW028 FEW150 BKN250 29/23 A2991 RMK AO2 SLP126 T02940228
Temperature: 29.4°C ( 85°F)
Dewpoint: 22.8°C ( 73°F) [RH = 68%]
Pressure (altimeter):29.91 inches Hg (1013.0 mb) [Sea level pressure: 1012.6 mb]
Winds:from the SE (130 degrees) at 5 MPH (4 knots; 2.1 m/s)
Visibility:10 or more sm (16+ km)
Ceiling:25000 feet AGL
Clouds: few clouds at 2800 feet AGL, few clouds at 15000 feet AGL, broken clouds at 25000 feet AGL

METAR for:KHOU (Houston/Hobby Arpt, TX, US)
Text:KHOU 171953Z 24004KT 10SM FEW030 SCT250 28/21 A2990 RMK AO2 SLP128 T02830206
Temperature: 28.3°C ( 83°F)
Dewpoint: 20.6°C ( 69°F) [RH = 63%]
Pressure (altimeter):29.90 inches Hg (1012.6 mb) [Sea level pressure: 1012.8 mb]
Winds:from the WSW (240 degrees) at 5 MPH (4 knots; 2.1 m/s)
Visibility:10 or more sm (16+ km)
Ceiling:at least 12,000 feet AGL
Clouds: few clouds at 3000 feet AGL, scattered clouds at 25000 feet AGL

METAR for:KGLS (Galveston/Scholes In, TX, US)
Text:KGLS 171952Z 24006KT 10SM SCT030 26/22 A2991 RMK AO2 SLP127 T02560222 $
Temperature: 25.6°C ( 78°F)
Dewpoint: 22.2°C ( 72°F) [RH = 82%]
Pressure (altimeter):29.91 inches Hg (1013.0 mb) [Sea level pressure: 1012.7 mb]
Winds:from the WSW (240 degrees) at 7 MPH (6 knots; 3.1 m/s)
Visibility:10 or more sm (16+ km)
Ceiling:at least 12,000 feet AGL
Clouds: scattered clouds at 3000 feet AGL
QC Flag:SOME DATA ABOVE MAY BE INACCURATE!!!"$" is an indication the sensor requires maintenance.

METAR for:KLVJ (Houston/Pearland Rgn, TX, US)
Text:KLVJ 171953Z AUTO VRB04KT 10SM SCT028 29/21 A2991 RMK AO2 SLP128 T02890211
Temperature: 28.9°C ( 84°F)
Dewpoint: 21.1°C ( 70°F) [RH = 63%]
Pressure (altimeter):29.91 inches Hg (1013.0 mb) [Sea level pressure: 1012.8 mb]
Winds:variable direction winds at 5 MPH (4 knots; 2.1 m/s)
Visibility:10 or more sm (16+ km)
Ceiling:at least 12,000 feet AGL
Clouds: scattered clouds at 2800 feet AGL
QC Flag:automated observation with no human augmentation

METAR for:KSGR (Houston/Sugar Land R, TX, US)
Text:KSGR 171953Z 00000KT 10SM SKC 29/22 A2989
Temperature: 29.0°C ( 84°F)
Dewpoint: 22.0°C ( 72°F) [RH = 66%]
Pressure (altimeter):29.89 inches Hg (1012.3 mb)
Winds:calm
Visibility:10 or more sm (16+ km)
Ceiling:at least 12,000 feet AGL
Clouds:clear skies

METAR for:KDWH (Houston/Hooks Mem, TX, US)
Text:KDWH 171953Z 00000KT 10SM CLR 29/21 A2991 RMK AO2 SLP125 T02940206
Temperature: 29.4°C ( 85°F)
Dewpoint: 20.6°C ( 69°F) [RH = 59%]
Pressure (altimeter):29.91 inches Hg (1013.0 mb) [Sea level pressure: 1012.5 mb]
Winds:calm
Visibility:10 or more sm (16+ km)
Ceiling:at least 12,000 feet AGL
Clouds:sky clear below 12,000 feet AGL

METAR for:KCLL (College Station/East, TX, US)
Text:KCLL 171953Z 21007KT 10SM CLR 29/21 A2992 RMK AO2 SLP126 T02890206
Temperature: 28.9°C ( 84°F)
Dewpoint: 20.6°C ( 69°F) [RH = 61%]
Pressure (altimeter):29.92 inches Hg (1013.3 mb) [Sea level pressure: 1012.6 mb]
Winds:from the SSW (210 degrees) at 8 MPH (7 knots; 3.6 m/s)
Visibility:10 or more sm (16+ km)
Ceiling:at least 12,000 feet AGL
Clouds:sky clear below 12,000 feet AGL

METAR for:KUTS (Huntsville Muni, TX, US)
Text:KUTS 171953Z AUTO 00000KT 10SM FEW034 FEW110 31/21 A2991 RMK AO2 SLP124 T03060211
Temperature: 30.6°C ( 87°F)
Dewpoint: 21.1°C ( 70°F) [RH = 57%]
Pressure (altimeter):29.91 inches Hg (1013.0 mb) [Sea level pressure: 1012.4 mb]
Winds:calm
Visibility:10 or more sm (16+ km)
Ceiling:at least 12,000 feet AGL
Clouds: few clouds at 3400 feet AGL, few clouds at 11000 feet AGL
QC Flag:automated observation with no human augmentation

METAR for:KCXO (Conroe/Executive Arp, TX, US)
Text:KCXO 171953Z 15006KT 10SM CLR 29/22 A2992 RMK AO2 SLP128 T02940217
Temperature: 29.4°C ( 85°F)
Dewpoint: 21.7°C ( 71°F) [RH = 63%]
Pressure (altimeter):29.92 inches Hg (1013.3 mb) [Sea level pressure: 1012.8 mb]
Winds:from the SSE (150 degrees) at 7 MPH (6 knots; 3.1 m/s)
Visibility:10 or more sm (16+ km)
Ceiling:at least 12,000 feet AGL
Clouds:sky clear below 12,000 feet AGL

METAR for:KLBX (Angleton/Texas Gulf, TX, US)
Text:KLBX 171953Z AUTO 00000KT 10SM FEW033 30/22 A2989 RMK AO2 SLP122 T03000222
Temperature: 30.0°C ( 86°F)
Dewpoint: 22.2°C ( 72°F) [RH = 63%]
Pressure (altimeter):29.89 inches Hg (1012.3 mb) [Sea level pressure: 1012.2 mb]
Winds:calm
Visibility:10 or more sm (16+ km)
Ceiling:at least 12,000 feet AGL
Clouds: few clouds at 3300 feet AGL
QC Flag:automated observation with no human augmentation

METAR for:KPSX (Palacios Muni, TX, US)
Text:KPSX 171953Z AUTO 19006KT 10SM CLR 30/22 A2989 RMK AO2 SLP120 T03000222
Temperature: 30.0°C ( 86°F)
Dewpoint: 22.2°C ( 72°F) [RH = 63%]
Pressure (altimeter):29.89 inches Hg (1012.3 mb) [Sea level pressure: 1012.0 mb]
Winds:from the S (190 degrees) at 7 MPH (6 knots; 3.1 m/s)
Visibility:10 or more sm (16+ km)
Ceiling:at least 12,000 feet AGL
Clouds:sky clear below 12,000 feet AGL
QC Flag:automated observation with no human augmentation